sensor_id;sensor_type;location;lat;lon;timestamp;P1;durP1;ratioP1;P2;durP2;ratioP2
41829;SDS011;38614;43.472;23.936;2023-07-29T00:01:34;22.88;;;6.65;;
41829;SDS011;38614;43.472;23.936;2023-07-29T00:04:23;13.52;;;5.55;;
41829;SDS011;38614;43.472;23.936;2023-07-29T00:07:10;11.60;;;2.55;;
41829;SDS011;38614;43.472;23.936;2023-07-29T00:09:58;12.48;;;4.53;;
41829;SDS011;38614;43.472;23.936;2023-07-29T00:12:46;9.25;;;3.92;;
41829;SDS011;38614;43.472;23.936;2023-07-29T00:15:34;7.50;;;2.60;;
41829;SDS011;38614;43.472;23.936;2023-07-29T00:18:22;2.72;;;1.50;;
41829;SDS011;38614;43.472;23.936;2023-07-29T00:21:10;2.28;;;1.30;;
41829;SDS011;38614;43.472;23.936;2023-07-29T00:23:58;4.20;;;1.48;;
41829;SDS011;38614;43.472;23.936;2023-07-29T00:26:48;5.78;;;2.08;;
41829;SDS011;38614;43.472;23.936;2023-07-29T00:29:35;8.52;;;2.65;;
41829;SDS011;38614;43.472;23.936;2023-07-29T00:32:23;4.32;;;2.13;;
41829;SDS011;38614;43.472;23.936;2023-07-29T00:35:11;5.55;;;2.78;;
41829;SDS011;38614;43.472;23.936;2023-07-29T00:37:59;2.70;;;1.95;;
41829;SDS011;38614;43.472;23.936;2023-07-29T00:40:47;2.88;;;1.35;;
41829;SDS011;38614;43.472;23.936;2023-07-29T00:43:35;6.05;;;1.67;;
41829;SDS011;38614;43.472;23.936;2023-07-29T00:46:23;11.50;;;2.25;;
41829;SDS011;38614;43.472;23.936;2023-07-29T00:49:12;12.85;;;1.35;;
41829;SDS011;38614;43.472;23.936;2023-07-29T00:52:01;3.10;;;0.70;;
41829;SDS011;38614;43.472;23.936;2023-07-29T00:54:48;3.95;;;1.58;;
41829;SDS011;38614;43.472;23.936;2023-07-29T00:57:36;5.43;;;0.93;;
41829;SDS011;38614;43.472;23.936;2023-07-29T01:00:25;5.13;;;0.90;;
41829;SDS011;38614;43.472;23.936;2023-07-29T01:03:12;3.40;;;1.08;;
41829;SDS011;38614;43.472;23.936;2023-07-29T01:09:49;2.60;;;0.73;;
41829;SDS011;38614;43.472;23.936;2023-07-29T01:12:51;5.25;;;1.02;;
41829;SDS011;38614;43.472;23.936;2023-07-29T01:18:43;12.50;;;3.65;;
41829;SDS011;38614;43.472;23.936;2023-07-29T01:21:34;13.55;;;3.55;;
41829;SDS011;38614;43.472;23.936;2023-07-29T01:24:23;14.07;;;3.60;;
41829;SDS011;38614;43.472;23.936;2023-07-29T01:27:11;9.30;;;4.47;;
41829;SDS011;38614;43.472;23.936;2023-07-29T01:30:00;20.55;;;4.40;;
41829;SDS011;38614;43.472;23.936;2023-07-29T01:32:58;22.30;;;3.47;;
41829;SDS011;38614;43.472;23.936;2023-07-29T01:36:01;5.95;;;1.55;;
41829;SDS011;38614;43.472;23.936;2023-07-29T01:38:53;3.57;;;1.10;;
41829;SDS011;38614;43.472;23.936;2023-07-29T01:41:43;7.18;;;1.42;;
41829;SDS011;38614;43.472;23.936;2023-07-29T01:44:32;5.13;;;1.35;;
41829;SDS011;38614;43.472;23.936;2023-07-29T01:47:20;4.38;;;1.13;;
41829;SDS011;38614;43.472;23.936;2023-07-29T01:50:10;3.25;;;0.98;;
41829;SDS011;38614;43.472;23.936;2023-07-29T01:52:58;2.35;;;1.23;;
41829;SDS011;38614;43.472;23.936;2023-07-29T01:55:46;2.00;;;1.25;;
41829;SDS011;38614;43.472;23.936;2023-07-29T01:58:34;2.45;;;1.02;;
41829;SDS011;38614;43.472;23.936;2023-07-29T02:01:22;2.08;;;1.05;;
41829;SDS011;38614;43.472;23.936;2023-07-29T02:04:10;2.35;;;1.38;;
41829;SDS011;38614;43.472;23.936;2023-07-29T02:06:58;1.55;;;0.68;;
41829;SDS011;38614;43.472;23.936;2023-07-29T02:09:46;5.38;;;1.65;;
41829;SDS011;38614;43.472;23.936;2023-07-29T02:12:33;1.20;;;1.02;;
41829;SDS011;38614;43.472;23.936;2023-07-29T02:15:21;5.38;;;1.13;;
41829;SDS011;38614;43.472;23.936;2023-07-29T02:18:09;5.97;;;1.83;;
41829;SDS011;38614;43.472;23.936;2023-07-29T02:20:57;7.18;;;2.70;;
41829;SDS011;38614;43.472;23.936;2023-07-29T02:23:45;6.60;;;2.72;;
41829;SDS011;38614;43.472;23.936;2023-07-29T02:26:33;5.07;;;2.58;;
41829;SDS011;38614;43.472;23.936;2023-07-29T02:29:21;6.47;;;2.83;;
41829;SDS011;38614;43.472;23.936;2023-07-29T02:32:09;12.35;;;3.08;;
41829;SDS011;38614;43.472;23.936;2023-07-29T02:34:57;8.32;;;3.28;;
41829;SDS011;38614;43.472;23.936;2023-07-29T02:37:45;6.15;;;2.60;;
41829;SDS011;38614;43.472;23.936;2023-07-29T02:40:34;7.25;;;2.90;;
41829;SDS011;38614;43.472;23.936;2023-07-29T02:43:21;8.60;;;2.67;;
41829;SDS011;38614;43.472;23.936;2023-07-29T02:46:09;6.28;;;2.47;;
41829;SDS011;38614;43.472;23.936;2023-07-29T02:48:57;6.65;;;2.00;;
41829;SDS011;38614;43.472;23.936;2023-07-29T02:51:45;9.60;;;3.00;;
41829;SDS011;38614;43.472;23.936;2023-07-29T02:54:32;26.70;;;6.30;;
41829;SDS011;38614;43.472;23.936;2023-07-29T02:57:20;18.95;;;5.90;;
41829;SDS011;38614;43.472;23.936;2023-07-29T03:00:08;30.83;;;7.95;;
41829;SDS011;38614;43.472;23.936;2023-07-29T03:02:58;28.60;;;7.88;;
41829;SDS011;38614;43.472;23.936;2023-07-29T03:05:46;12.05;;;3.65;;
41829;SDS011;38614;43.472;23.936;2023-07-29T03:08:34;6.28;;;1.35;;
41829;SDS011;38614;43.472;23.936;2023-07-29T03:11:22;4.90;;;1.02;;
41829;SDS011;38614;43.472;23.936;2023-07-29T03:14:10;1.55;;;0.80;;
41829;SDS011;38614;43.472;23.936;2023-07-29T03:17:01;1.27;;;0.50;;
41829;SDS011;38614;43.472;23.936;2023-07-29T03:19:51;1.20;;;0.80;;
41829;SDS011;38614;43.472;23.936;2023-07-29T03:22:39;7.65;;;1.30;;
41829;SDS011;38614;43.472;23.936;2023-07-29T03:25:27;1.33;;;0.93;;
41829;SDS011;38614;43.472;23.936;2023-07-29T03:28:15;1.98;;;0.98;;
41829;SDS011;38614;43.472;23.936;2023-07-29T03:31:04;1.65;;;0.70;;
41829;SDS011;38614;43.472;23.936;2023-07-29T03:33:52;2.95;;;1.00;;
41829;SDS011;38614;43.472;23.936;2023-07-29T03:36:40;6.35;;;2.47;;
41829;SDS011;38614;43.472;23.936;2023-07-29T03:39:28;4.65;;;2.22;;
41829;SDS011;38614;43.472;23.936;2023-07-29T03:42:16;5.88;;;4.18;;
41829;SDS011;38614;43.472;23.936;2023-07-29T03:45:04;3.83;;;3.15;;
41829;SDS011;38614;43.472;23.936;2023-07-29T03:47:52;3.92;;;2.78;;
41829;SDS011;38614;43.472;23.936;2023-07-29T03:50:40;7.45;;;3.03;;
41829;SDS011;38614;43.472;23.936;2023-07-29T03:53:28;4.28;;;2.90;;
41829;SDS011;38614;43.472;23.936;2023-07-29T03:56:16;3.63;;;2.22;;
41829;SDS011;38614;43.472;23.936;2023-07-29T03:59:04;3.50;;;1.80;;
41829;SDS011;38614;43.472;23.936;2023-07-29T04:01:53;2.13;;;1.58;;
41829;SDS011;38614;43.472;23.936;2023-07-29T04:04:41;2.90;;;1.73;;
41829;SDS011;38614;43.472;23.936;2023-07-29T04:07:31;6.32;;;1.00;;
41829;SDS011;38614;43.472;23.936;2023-07-29T04:10:19;6.10;;;1.20;;
41829;SDS011;38614;43.472;23.936;2023-07-29T04:13:07;3.13;;;0.52;;
41829;SDS011;38614;43.472;23.936;2023-07-29T04:15:55;1.67;;;0.80;;
41829;SDS011;38614;43.472;23.936;2023-07-29T04:18:43;2.75;;;0.55;;
41829;SDS011;38614;43.472;23.936;2023-07-29T04:21:31;0.93;;;0.60;;
41829;SDS011;38614;43.472;23.936;2023-07-29T04:24:19;1.08;;;0.68;;
41829;SDS011;38614;43.472;23.936;2023-07-29T04:27:07;1.33;;;0.93;;
41829;SDS011;38614;43.472;23.936;2023-07-29T04:29:55;4.72;;;1.70;;
41829;SDS011;38614;43.472;23.936;2023-07-29T04:32:43;3.25;;;1.52;;
41829;SDS011;38614;43.472;23.936;2023-07-29T04:35:32;1.30;;;1.02;;
41829;SDS011;38614;43.472;23.936;2023-07-29T04:38:20;6.63;;;1.20;;
41829;SDS011;38614;43.472;23.936;2023-07-29T04:41:08;7.75;;;2.10;;
41829;SDS011;38614;43.472;23.936;2023-07-29T04:43:57;18.98;;;1.65;;
41829;SDS011;38614;43.472;23.936;2023-07-29T04:46:47;3.97;;;2.25;;
41829;SDS011;38614;43.472;23.936;2023-07-29T04:49:36;4.15;;;2.13;;
41829;SDS011;38614;43.472;23.936;2023-07-29T04:52:24;2.65;;;1.83;;
41829;SDS011;38614;43.472;23.936;2023-07-29T04:55:14;15.13;;;5.38;;
41829;SDS011;38614;43.472;23.936;2023-07-29T04:58:02;10.15;;;5.18;;
41829;SDS011;38614;43.472;23.936;2023-07-29T05:00:50;5.68;;;3.17;;
41829;SDS011;38614;43.472;23.936;2023-07-29T05:03:38;4.47;;;1.60;;
41829;SDS011;38614;43.472;23.936;2023-07-29T05:06:28;1.80;;;1.50;;
41829;SDS011;38614;43.472;23.936;2023-07-29T05:09:17;2.90;;;1.30;;
41829;SDS011;38614;43.472;23.936;2023-07-29T05:12:06;14.55;;;2.17;;
41829;SDS011;38614;43.472;23.936;2023-07-29T06:21:14;3.53;;;1.40;;
41829;SDS011;38614;43.472;23.936;2023-07-29T06:24:04;5.30;;;1.20;;
41829;SDS011;38614;43.472;23.936;2023-07-29T06:26:55;1.20;;;0.85;;
41829;SDS011;38614;43.472;23.936;2023-07-29T06:29:43;3.10;;;1.67;;
41829;SDS011;38614;43.472;23.936;2023-07-29T06:32:31;2.33;;;1.30;;
41829;SDS011;38614;43.472;23.936;2023-07-29T06:35:19;2.55;;;1.77;;
41829;SDS011;38614;43.472;23.936;2023-07-29T06:38:06;4.65;;;2.15;;
41829;SDS011;38614;43.472;23.936;2023-07-29T06:40:54;11.60;;;2.15;;
41829;SDS011;38614;43.472;23.936;2023-07-29T06:43:42;5.28;;;1.90;;
41829;SDS011;38614;43.472;23.936;2023-07-29T06:46:30;6.18;;;1.33;;
41829;SDS011;38614;43.472;23.936;2023-07-29T06:49:18;3.65;;;1.63;;
41829;SDS011;38614;43.472;23.936;2023-07-29T06:52:05;4.15;;;1.30;;
41829;SDS011;38614;43.472;23.936;2023-07-29T06:54:53;4.18;;;0.93;;
41829;SDS011;38614;43.472;23.936;2023-07-29T06:57:41;6.00;;;1.00;;
41829;SDS011;38614;43.472;23.936;2023-07-29T07:00:32;3.35;;;0.90;;
41829;SDS011;38614;43.472;23.936;2023-07-29T07:03:25;0.40;;;0.30;;
41829;SDS011;38614;43.472;23.936;2023-07-29T07:06:16;0.75;;;0.45;;
41829;SDS011;38614;43.472;23.936;2023-07-29T07:09:04;0.75;;;0.60;;
41829;SDS011;38614;43.472;23.936;2023-07-29T07:11:52;1.98;;;0.55;;
41829;SDS011;38614;43.472;23.936;2023-07-29T07:14:40;1.30;;;0.47;;
41829;SDS011;38614;43.472;23.936;2023-07-29T07:17:28;2.92;;;0.52;;
41829;SDS011;38614;43.472;23.936;2023-07-29T07:20:16;0.38;;;0.22;;
41829;SDS011;38614;43.472;23.936;2023-07-29T07:23:04;1.35;;;0.55;;
41829;SDS011;38614;43.472;23.936;2023-07-29T07:25:52;3.25;;;0.32;;
41829;SDS011;38614;43.472;23.936;2023-07-29T07:28:40;2.08;;;0.60;;
41829;SDS011;38614;43.472;23.936;2023-07-29T07:31:28;1.08;;;0.63;;
41829;SDS011;38614;43.472;23.936;2023-07-29T07:34:16;0.52;;;0.30;;
41829;SDS011;38614;43.472;23.936;2023-07-29T07:37:04;2.22;;;0.77;;
41829;SDS011;38614;43.472;23.936;2023-07-29T07:39:54;2.30;;;0.60;;
41829;SDS011;38614;43.472;23.936;2023-07-29T07:42:42;1.15;;;0.50;;
41829;SDS011;38614;43.472;23.936;2023-07-29T07:45:31;2.70;;;0.30;;
41829;SDS011;38614;43.472;23.936;2023-07-29T07:48:20;1.20;;;0.63;;
41829;SDS011;38614;43.472;23.936;2023-07-29T07:51:16;3.60;;;0.75;;
41829;SDS011;38614;43.472;23.936;2023-07-29T07:54:06;0.40;;;0.40;;
41829;SDS011;38614;43.472;23.936;2023-07-29T07:56:54;2.80;;;0.65;;
41829;SDS011;38614;43.472;23.936;2023-07-29T07:59:42;0.57;;;0.40;;
41829;SDS011;38614;43.472;23.936;2023-07-29T08:02:30;0.90;;;0.43;;
41829;SDS011;38614;43.472;23.936;2023-07-29T08:05:18;0.77;;;0.32;;
41829;SDS011;38614;43.472;23.936;2023-07-29T08:08:05;1.92;;;0.50;;
41829;SDS011;38614;43.472;23.936;2023-07-29T08:10:53;1.20;;;0.55;;
41829;SDS011;38614;43.472;23.936;2023-07-29T08:13:42;1.27;;;0.43;;
41829;SDS011;38614;43.472;23.936;2023-07-29T08:16:30;3.10;;;0.50;;
41829;SDS011;38614;43.472;23.936;2023-07-29T08:19:21;0.88;;;0.30;;
41829;SDS011;38614;43.472;23.936;2023-07-29T08:22:09;1.02;;;0.40;;
41829;SDS011;38614;43.472;23.936;2023-07-29T08:24:57;2.10;;;0.45;;
41829;SDS011;38614;43.472;23.936;2023-07-29T08:27:45;0.30;;;0.30;;
41829;SDS011;38614;43.472;23.936;2023-07-29T08:30:32;0.68;;;0.45;;
41829;SDS011;38614;43.472;23.936;2023-07-29T08:33:20;1.05;;;0.10;;
41829;SDS011;38614;43.472;23.936;2023-07-29T08:36:08;1.45;;;0.50;;
41829;SDS011;38614;43.472;23.936;2023-07-29T08:38:56;0.65;;;0.30;;
41829;SDS011;38614;43.472;23.936;2023-07-29T08:41:54;1.35;;;0.40;;
41829;SDS011;38614;43.472;23.936;2023-07-29T08:44:46;0.32;;;0.32;;
41829;SDS011;38614;43.472;23.936;2023-07-29T08:47:36;6.70;;;0.40;;
41829;SDS011;38614;43.472;23.936;2023-07-29T08:50:24;0.47;;;0.20;;
41829;SDS011;38614;43.472;23.936;2023-07-29T08:53:13;1.23;;;0.20;;
41829;SDS011;38614;43.472;23.936;2023-07-29T08:56:03;0.32;;;0.22;;
41829;SDS011;38614;43.472;23.936;2023-07-29T08:58:55;0.40;;;0.13;;
41829;SDS011;38614;43.472;23.936;2023-07-29T09:01:43;8.15;;;0.32;;
41829;SDS011;38614;43.472;23.936;2023-07-29T09:04:31;1.17;;;0.60;;
41829;SDS011;38614;43.472;23.936;2023-07-29T09:07:19;0.75;;;0.25;;
41829;SDS011;38614;43.472;23.936;2023-07-29T09:10:12;1.90;;;0.25;;
41829;SDS011;38614;43.472;23.936;2023-07-29T09:13:01;0.10;;;0.10;;
41829;SDS011;38614;43.472;23.936;2023-07-29T09:15:53;0.30;;;0.20;;
41829;SDS011;38614;43.472;23.936;2023-07-29T09:18:43;5.18;;;0.20;;
41829;SDS011;38614;43.472;23.936;2023-07-29T09:21:31;8.05;;;0.60;;
41829;SDS011;38614;43.472;23.936;2023-07-29T09:24:20;0.30;;;0.20;;
41829;SDS011;38614;43.472;23.936;2023-07-29T09:27:09;2.20;;;0.10;;
41829;SDS011;38614;43.472;23.936;2023-07-29T09:30:17;0.63;;;0.10;;
41829;SDS011;38614;43.472;23.936;2023-07-29T09:33:05;1.23;;;0.20;;
41829;SDS011;38614;43.472;23.936;2023-07-29T09:35:54;1.45;;;0.47;;
41829;SDS011;38614;43.472;23.936;2023-07-29T09:38:42;0.82;;;0.40;;
41829;SDS011;38614;43.472;23.936;2023-07-29T09:41:32;0.57;;;0.08;;
41829;SDS011;38614;43.472;23.936;2023-07-29T09:44:19;3.92;;;0.43;;
41829;SDS011;38614;43.472;23.936;2023-07-29T09:47:08;0.98;;;0.10;;
41829;SDS011;38614;43.472;23.936;2023-07-29T09:49:56;3.35;;;0.20;;
41829;SDS011;38614;43.472;23.936;2023-07-29T09:52:44;0.10;;;0.00;;
41829;SDS011;38614;43.472;23.936;2023-07-29T09:55:32;1.25;;;0.00;;
41829;SDS011;38614;43.472;23.936;2023-07-29T09:58:27;0.20;;;0.10;;
41829;SDS011;38614;43.472;23.936;2023-07-29T10:01:15;6.85;;;0.10;;
41829;SDS011;38614;43.472;23.936;2023-07-29T10:04:04;0.82;;;0.10;;
41829;SDS011;38614;43.472;23.936;2023-07-29T10:06:52;0.15;;;0.05;;
41829;SDS011;38614;43.472;23.936;2023-07-29T10:09:43;5.55;;;0.10;;
41829;SDS011;38614;43.472;23.936;2023-07-29T10:12:33;1.42;;;0.10;;
41829;SDS011;38614;43.472;23.936;2023-07-29T10:15:22;1.95;;;0.10;;
41829;SDS011;38614;43.472;23.936;2023-07-29T10:18:11;1.20;;;0.13;;
41829;SDS011;38614;43.472;23.936;2023-07-29T10:21:00;0.30;;;0.13;;
41829;SDS011;38614;43.472;23.936;2023-07-29T10:23:49;0.20;;;0.10;;
41829;SDS011;38614;43.472;23.936;2023-07-29T10:26:40;0.30;;;0.10;;
41829;SDS011;38614;43.472;23.936;2023-07-29T10:29:31;3.60;;;0.20;;
41829;SDS011;38614;43.472;23.936;2023-07-29T10:32:27;25.60;;;0.65;;
41829;SDS011;38614;43.472;23.936;2023-07-29T10:35:17;1.10;;;0.13;;
41829;SDS011;38614;43.472;23.936;2023-07-29T10:38:08;0.10;;;0.03;;
41829;SDS011;38614;43.472;23.936;2023-07-29T10:40:59;0.17;;;0.17;;
41829;SDS011;38614;43.472;23.936;2023-07-29T10:43:48;0.10;;;0.10;;
41829;SDS011;38614;43.472;23.936;2023-07-29T10:46:36;0.73;;;0.10;;
41829;SDS011;38614;43.472;23.936;2023-07-29T10:49:24;0.55;;;0.17;;
41829;SDS011;38614;43.472;23.936;2023-07-29T10:55:32;0.27;;;0.10;;
41829;SDS011;38614;43.472;23.936;2023-07-29T10:58:21;0.40;;;0.25;;
41829;SDS011;38614;43.472;23.936;2023-07-29T11:01:12;0.20;;;0.10;;
41829;SDS011;38614;43.472;23.936;2023-07-29T11:04:03;0.13;;;0.10;;
41829;SDS011;38614;43.472;23.936;2023-07-29T11:10:02;2.72;;;0.28;;
41829;SDS011;38614;43.472;23.936;2023-07-29T11:12:54;1.95;;;0.10;;
41829;SDS011;38614;43.472;23.936;2023-07-29T11:15:43;0.20;;;0.10;;
41829;SDS011;38614;43.472;23.936;2023-07-29T11:18:34;1.45;;;0.10;;
41829;SDS011;38614;43.472;23.936;2023-07-29T11:21:23;0.22;;;0.10;;
41829;SDS011;38614;43.472;23.936;2023-07-29T11:24:16;0.20;;;0.00;;
41829;SDS011;38614;43.472;23.936;2023-07-29T11:27:05;0.50;;;0.10;;
41829;SDS011;38614;43.472;23.936;2023-07-29T11:29:59;2.90;;;0.13;;
41829;SDS011;38614;43.472;23.936;2023-07-29T11:32:49;1.17;;;0.20;;
41829;SDS011;38614;43.472;23.936;2023-07-29T11:35:40;0.40;;;0.10;;
41829;SDS011;38614;43.472;23.936;2023-07-29T11:38:28;0.30;;;0.10;;
41829;SDS011;38614;43.472;23.936;2023-07-29T11:41:19;0.20;;;0.10;;
41829;SDS011;38614;43.472;23.936;2023-07-29T11:44:09;3.05;;;0.20;;
41829;SDS011;38614;43.472;23.936;2023-07-29T11:47:06;0.10;;;0.00;;
41829;SDS011;38614;43.472;23.936;2023-07-29T11:50:00;0.20;;;0.00;;
41829;SDS011;38614;43.472;23.936;2023-07-29T11:52:48;0.17;;;0.00;;
41829;SDS011;38614;43.472;23.936;2023-07-29T11:55:39;0.15;;;0.00;;
41829;SDS011;38614;43.472;23.936;2023-07-29T11:58:27;0.32;;;0.00;;
41829;SDS011;38614;43.472;23.936;2023-07-29T12:01:15;0.15;;;0.00;;
41829;SDS011;38614;43.472;23.936;2023-07-29T12:04:04;0.13;;;0.03;;
41829;SDS011;38614;43.472;23.936;2023-07-29T12:06:52;0.28;;;0.10;;
41829;SDS011;38614;43.472;23.936;2023-07-29T12:09:40;0.43;;;0.30;;
41829;SDS011;38614;43.472;23.936;2023-07-29T12:12:29;0.20;;;0.00;;
41829;SDS011;38614;43.472;23.936;2023-07-29T12:15:24;0.00;;;0.00;;
41829;SDS011;38614;43.472;23.936;2023-07-29T12:18:13;0.35;;;0.00;;
41829;SDS011;38614;43.472;23.936;2023-07-29T12:21:01;0.88;;;0.10;;
41829;SDS011;38614;43.472;23.936;2023-07-29T12:23:50;0.88;;;0.10;;
41829;SDS011;38614;43.472;23.936;2023-07-29T12:26:39;2.95;;;0.10;;
41829;SDS011;38614;43.472;23.936;2023-07-29T12:29:27;0.30;;;0.05;;
41829;SDS011;38614;43.472;23.936;2023-07-29T12:32:16;0.63;;;0.00;;
41829;SDS011;38614;43.472;23.936;2023-07-29T12:35:06;0.17;;;0.10;;
41829;SDS011;38614;43.472;23.936;2023-07-29T12:37:58;1.42;;;0.00;;
41829;SDS011;38614;43.472;23.936;2023-07-29T12:40:46;7.03;;;1.27;;
41829;SDS011;38614;43.472;23.936;2023-07-29T12:43:34;0.10;;;0.10;;
41829;SDS011;38614;43.472;23.936;2023-07-29T12:46:22;0.20;;;0.00;;
41829;SDS011;38614;43.472;23.936;2023-07-29T12:49:17;0.50;;;0.10;;
41829;SDS011;38614;43.472;23.936;2023-07-29T12:52:11;0.50;;;0.10;;
41829;SDS011;38614;43.472;23.936;2023-07-29T12:54:59;1.05;;;0.00;;
41829;SDS011;38614;43.472;23.936;2023-07-29T12:57:46;0.10;;;0.10;;
41829;SDS011;38614;43.472;23.936;2023-07-29T13:00:34;0.57;;;0.13;;
41829;SDS011;38614;43.472;23.936;2023-07-29T13:03:22;0.73;;;0.35;;
41829;SDS011;38614;43.472;23.936;2023-07-29T13:06:13;0.20;;;0.10;;
41829;SDS011;38614;43.472;23.936;2023-07-29T13:09:06;3.20;;;0.15;;
41829;SDS011;38614;43.472;23.936;2023-07-29T13:11:55;0.65;;;0.08;;
41829;SDS011;38614;43.472;23.936;2023-07-29T13:14:44;0.20;;;0.00;;
41829;SDS011;38614;43.472;23.936;2023-07-29T13:17:33;0.10;;;0.00;;
41829;SDS011;38614;43.472;23.936;2023-07-29T13:20:21;1.15;;;0.13;;
41829;SDS011;38614;43.472;23.936;2023-07-29T13:23:09;4.88;;;0.10;;
41829;SDS011;38614;43.472;23.936;2023-07-29T13:25:57;0.00;;;0.00;;
41829;SDS011;38614;43.472;23.936;2023-07-29T13:28:45;0.10;;;0.00;;
41829;SDS011;38614;43.472;23.936;2023-07-29T13:31:33;0.08;;;0.00;;
41829;SDS011;38614;43.472;23.936;2023-07-29T13:34:22;5.65;;;0.00;;
41829;SDS011;38614;43.472;23.936;2023-07-29T13:37:09;1.33;;;0.20;;
41829;SDS011;38614;43.472;23.936;2023-07-29T13:39:57;0.10;;;0.00;;
41829;SDS011;38614;43.472;23.936;2023-07-29T13:42:45;0.10;;;0.10;;
41829;SDS011;38614;43.472;23.936;2023-07-29T13:45:34;11.77;;;0.10;;
41829;SDS011;38614;43.472;23.936;2023-07-29T13:48:24;4.10;;;0.10;;
41829;SDS011;38614;43.472;23.936;2023-07-29T13:51:12;0.43;;;0.10;;
41829;SDS011;38614;43.472;23.936;2023-07-29T13:54:00;0.10;;;0.00;;
41829;SDS011;38614;43.472;23.936;2023-07-29T13:56:48;0.68;;;0.10;;
41829;SDS011;38614;43.472;23.936;2023-07-29T13:59:40;1.33;;;0.20;;
41829;SDS011;38614;43.472;23.936;2023-07-29T14:02:29;0.10;;;0.00;;
41829;SDS011;38614;43.472;23.936;2023-07-29T14:05:18;0.10;;;0.00;;
41829;SDS011;38614;43.472;23.936;2023-07-29T14:08:06;0.10;;;0.00;;
41829;SDS011;38614;43.472;23.936;2023-07-29T14:10:55;0.10;;;0.00;;
41829;SDS011;38614;43.472;23.936;2023-07-29T14:13:57;0.20;;;0.03;;
41829;SDS011;38614;43.472;23.936;2023-07-29T14:16:49;0.10;;;0.00;;
41829;SDS011;38614;43.472;23.936;2023-07-29T14:19:37;0.00;;;0.00;;
41829;SDS011;38614;43.472;23.936;2023-07-29T14:22:25;0.10;;;0.00;;
41829;SDS011;38614;43.472;23.936;2023-07-29T14:25:13;1.08;;;0.10;;
41829;SDS011;38614;43.472;23.936;2023-07-29T14:28:02;0.15;;;0.00;;
41829;SDS011;38614;43.472;23.936;2023-07-29T14:30:49;0.20;;;0.00;;
41829;SDS011;38614;43.472;23.936;2023-07-29T14:33:37;20.67;;;2.20;;
41829;SDS011;38614;43.472;23.936;2023-07-29T14:36:25;0.10;;;0.00;;
41829;SDS011;38614;43.472;23.936;2023-07-29T14:39:15;3.83;;;0.00;;
41829;SDS011;38614;43.472;23.936;2023-07-29T14:42:03;7.18;;;0.00;;
41829;SDS011;38614;43.472;23.936;2023-07-29T14:44:54;0.20;;;0.00;;
41829;SDS011;38614;43.472;23.936;2023-07-29T14:47:42;0.98;;;0.10;;
41829;SDS011;38614;43.472;23.936;2023-07-29T14:50:33;0.30;;;0.05;;
41829;SDS011;38614;43.472;23.936;2023-07-29T14:53:21;0.08;;;0.00;;
41829;SDS011;38614;43.472;23.936;2023-07-29T14:56:08;0.10;;;0.00;;
41829;SDS011;38614;43.472;23.936;2023-07-29T14:58:56;0.38;;;0.13;;
41829;SDS011;38614;43.472;23.936;2023-07-29T15:01:44;2.10;;;0.10;;
41829;SDS011;38614;43.472;23.936;2023-07-29T15:04:32;0.93;;;0.30;;
41829;SDS011;38614;43.472;23.936;2023-07-29T15:07:20;2.13;;;0.20;;
41829;SDS011;38614;43.472;23.936;2023-07-29T15:10:07;0.30;;;0.00;;
41829;SDS011;38614;43.472;23.936;2023-07-29T15:12:55;0.10;;;0.00;;
41829;SDS011;38614;43.472;23.936;2023-07-29T15:15:43;0.10;;;0.00;;
41829;SDS011;38614;43.472;23.936;2023-07-29T15:18:31;0.03;;;0.00;;
41829;SDS011;38614;43.472;23.936;2023-07-29T15:21:21;2.05;;;0.20;;
41829;SDS011;38614;43.472;23.936;2023-07-29T15:24:12;0.00;;;0.00;;
41829;SDS011;38614;43.472;23.936;2023-07-29T15:27:00;0.20;;;0.00;;
41829;SDS011;38614;43.472;23.936;2023-07-29T15:29:47;2.22;;;0.10;;
41829;SDS011;38614;43.472;23.936;2023-07-29T15:32:38;0.40;;;0.10;;
41829;SDS011;38614;43.472;23.936;2023-07-29T15:35:26;0.00;;;0.00;;
41829;SDS011;38614;43.472;23.936;2023-07-29T15:38:14;0.10;;;0.00;;
41829;SDS011;38614;43.472;23.936;2023-07-29T15:41:04;4.13;;;0.93;;
41829;SDS011;38614;43.472;23.936;2023-07-29T15:43:52;1.27;;;0.00;;
41829;SDS011;38614;43.472;23.936;2023-07-29T15:46:42;0.10;;;0.00;;
41829;SDS011;38614;43.472;23.936;2023-07-29T15:52:20;0.30;;;0.00;;
41829;SDS011;38614;43.472;23.936;2023-07-29T15:55:11;0.17;;;0.10;;
41829;SDS011;38614;43.472;23.936;2023-07-29T15:58:05;4.50;;;0.65;;
41829;SDS011;38614;43.472;23.936;2023-07-29T16:00:53;0.43;;;0.00;;
41829;SDS011;38614;43.472;23.936;2023-07-29T16:03:40;0.05;;;0.00;;
41829;SDS011;38614;43.472;23.936;2023-07-29T16:06:29;0.30;;;0.00;;
41829;SDS011;38614;43.472;23.936;2023-07-29T16:09:17;0.30;;;0.20;;
41829;SDS011;38614;43.472;23.936;2023-07-29T16:12:15;0.30;;;0.00;;
41829;SDS011;38614;43.472;23.936;2023-07-29T16:15:07;6.57;;;0.00;;
41829;SDS011;38614;43.472;23.936;2023-07-29T16:17:56;4.38;;;0.00;;
41829;SDS011;38614;43.472;23.936;2023-07-29T16:20:47;0.05;;;0.00;;
41829;SDS011;38614;43.472;23.936;2023-07-29T16:23:37;0.30;;;0.30;;
41829;SDS011;38614;43.472;23.936;2023-07-29T16:26:28;0.90;;;0.38;;
41829;SDS011;38614;43.472;23.936;2023-07-29T16:29:16;2.83;;;0.10;;
41829;SDS011;38614;43.472;23.936;2023-07-29T16:32:03;2.70;;;0.00;;
41829;SDS011;38614;43.472;23.936;2023-07-29T16:34:52;0.20;;;0.00;;
41829;SDS011;38614;43.472;23.936;2023-07-29T16:37:41;0.63;;;0.17;;
41829;SDS011;38614;43.472;23.936;2023-07-29T16:40:29;0.20;;;0.20;;
41829;SDS011;38614;43.472;23.936;2023-07-29T16:43:16;1.13;;;0.00;;
41829;SDS011;38614;43.472;23.936;2023-07-29T16:46:04;1.90;;;0.13;;
41829;SDS011;38614;43.472;23.936;2023-07-29T16:48:52;0.20;;;0.00;;
41829;SDS011;38614;43.472;23.936;2023-07-29T16:51:40;0.20;;;0.10;;
41829;SDS011;38614;43.472;23.936;2023-07-29T16:54:28;0.10;;;0.05;;
41829;SDS011;38614;43.472;23.936;2023-07-29T16:57:16;0.63;;;0.20;;
41829;SDS011;38614;43.472;23.936;2023-07-29T17:00:04;3.22;;;0.32;;
41829;SDS011;38614;43.472;23.936;2023-07-29T17:02:56;3.05;;;0.10;;
41829;SDS011;38614;43.472;23.936;2023-07-29T17:05:44;0.40;;;0.10;;
41829;SDS011;38614;43.472;23.936;2023-07-29T17:11:22;1.63;;;0.20;;
41829;SDS011;38614;43.472;23.936;2023-07-29T17:14:12;1.88;;;0.22;;
41829;SDS011;38614;43.472;23.936;2023-07-29T17:17:00;0.93;;;0.30;;
41829;SDS011;38614;43.472;23.936;2023-07-29T17:19:48;3.92;;;0.43;;
41829;SDS011;38614;43.472;23.936;2023-07-29T17:22:36;1.20;;;0.25;;
41829;SDS011;38614;43.472;23.936;2023-07-29T17:25:24;1.48;;;0.28;;
41829;SDS011;38614;43.472;23.936;2023-07-29T17:28:13;3.80;;;0.68;;
41829;SDS011;38614;43.472;23.936;2023-07-29T17:31:01;5.50;;;1.40;;
41829;SDS011;38614;43.472;23.936;2023-07-29T17:33:52;6.65;;;0.85;;
41829;SDS011;38614;43.472;23.936;2023-07-29T17:36:40;2.47;;;0.90;;
41829;SDS011;38614;43.472;23.936;2023-07-29T17:39:28;2.42;;;0.63;;
41829;SDS011;38614;43.472;23.936;2023-07-29T17:42:18;0.40;;;0.20;;
41829;SDS011;38614;43.472;23.936;2023-07-29T17:45:12;3.15;;;0.85;;
41829;SDS011;38614;43.472;23.936;2023-07-29T17:48:06;6.97;;;0.20;;
41829;SDS011;38614;43.472;23.936;2023-07-29T17:51:06;0.50;;;0.10;;
41829;SDS011;38614;43.472;23.936;2023-07-29T17:53:54;0.57;;;0.38;;
41829;SDS011;38614;43.472;23.936;2023-07-29T17:56:44;0.85;;;0.82;;
41829;SDS011;38614;43.472;23.936;2023-07-29T17:59:39;11.13;;;1.10;;
41829;SDS011;38614;43.472;23.936;2023-07-29T18:02:27;4.75;;;0.65;;
41829;SDS011;38614;43.472;23.936;2023-07-29T18:05:18;6.82;;;0.55;;
41829;SDS011;38614;43.472;23.936;2023-07-29T18:08:09;4.70;;;1.33;;